Time;durP1;ratioP1;P1;durP2;ratioP2;P2;SDS_P1;SDS_P2;PMS_P1;PMS_P2;Temp;Humidity;BMP_temperature;BMP_pressure;BME280_temperature;BME280_humidity;BME280_pressure;Samples;Min_cycle;Max_cycle;Signal;HPM_P1;HPM_P2
2021/05/03 00:01:49;;;;;;;2.47;2.10;;;8.80;80.00;;;;;;4972046;28;20038;-70
2021/05/03 00:04:15;;;;;;;3.95;2.40;;;8.80;80.10;;;;;;4953820;28;20027;-71
2021/05/03 00:06:41;;;;;;;6.70;2.15;;;8.70;80.50;;;;;;4954265;28;20027;-70
2021/05/03 00:09:07;;;;;;;3.97;2.22;;;8.70;80.40;;;;;;4953666;28;20452;-73
2021/05/03 00:11:33;;;;;;;3.63;2.47;;;8.60;81.10;;;;;;4954182;28;20125;-71
2021/05/03 00:13:59;;;;;;;5.65;2.50;;;8.60;81.00;;;;;;4953605;28;20085;-70
2021/05/03 00:16:25;;;;;;;3.45;2.85;;;8.60;81.70;;;;;;4953509;28;20069;-70
2021/05/03 00:18:51;;;;;;;4.22;2.10;;;8.60;81.50;;;;;;4953970;28;20058;-70
2021/05/03 00:21:17;;;;;;;4.03;2.47;;;8.60;81.30;;;;;;4970703;28;20036;-71
2021/05/03 00:23:43;;;;;;;2.97;2.38;;;8.70;81.30;;;;;;4971743;28;20039;-70
2021/05/03 00:26:11;;;;;;;3.90;2.40;;;8.70;81.30;;;;;;4953339;28;20030;-72
2021/05/03 00:28:37;;;;;;;4.38;2.50;;;8.60;82.00;;;;;;4971299;28;20022;-70
2021/05/03 00:31:03;;;;;;;5.00;2.55;;;8.60;82.00;;;;;;4953885;28;20122;-70
2021/05/03 00:33:28;;;;;;;3.47;2.47;;;8.50;82.50;;;;;;4953287;28;20244;-71
2021/05/03 00:35:54;;;;;;;3.85;2.80;;;8.50;82.80;;;;;;4954012;28;20114;-71
2021/05/03 00:38:19;;;;;;;5.90;2.53;;;8.50;82.80;;;;;;4970626;28;20117;-71
2021/05/03 00:40:45;;;;;;;4.65;2.10;;;8.50;82.90;;;;;;4953660;28;20103;-71
2021/05/03 00:43:17;;;;;;;6.78;3.08;;;8.50;83.30;;;;;;4970288;28;20031;-72
2021/05/03 00:45:43;;;;;;;3.30;2.45;;;8.40;83.60;;;;;;4971076;28;20062;-70
2021/05/03 00:48:09;;;;;;;4.95;2.45;;;8.40;83.70;;;;;;4970434;28;20042;-71
2021/05/03 00:50:34;;;;;;;3.85;2.65;;;8.50;82.90;;;;;;4953714;28;20096;-70
2021/05/03 00:53:00;;;;;;;7.32;2.80;;;8.50;83.00;;;;;;4953274;28;20201;-72
2021/05/03 00:55:27;;;;;;;6.88;2.78;;;8.40;83.80;;;;;;4953309;28;20038;-71
2021/05/03 00:57:53;;;;;;;4.30;2.58;;;8.40;83.80;;;;;;4953570;28;20031;-71
2021/05/03 01:00:20;;;;;;;2.85;2.53;;;8.50;83.50;;;;;;4954308;28;20049;-71
2021/05/03 01:02:45;;;;;;;3.60;2.55;;;8.50;84.10;;;;;;4975108;28;20093;-70
2021/05/03 01:05:11;;;;;;;3.33;2.40;;;8.50;83.80;;;;;;4974356;28;20433;-72
2021/05/03 01:07:37;;;;;;;7.53;3.00;;;8.50;83.10;;;;;;4957471;28;20488;-71
2021/05/03 01:10:04;;;;;;;3.72;2.90;;;8.50;83.30;;;;;;4957588;28;20445;-71
2021/05/03 01:12:30;;;;;;;2.85;2.55;;;8.50;83.70;;;;;;4956777;28;20042;-70
2021/05/03 01:14:56;;;;;;;3.03;2.55;;;8.50;83.70;;;;;;4974758;28;20479;-70
2021/05/03 01:17:32;;;;;;;5.32;3.20;;;8.60;83.50;;;;;;4956671;28;20035;-70
2021/05/03 01:20:05;;;;;;;4.75;2.72;;;8.50;83.70;;;;;;4974566;28;20456;-71
2021/05/03 01:22:33;;;;;;;4.57;2.78;;;8.40;84.00;;;;;;4956831;28;20034;-70
2021/05/03 01:24:59;;;;;;;2.92;2.55;;;8.40;84.50;;;;;;4974785;28;20039;-71
2021/05/03 01:27:25;;;;;;;3.67;2.35;;;8.40;84.40;;;;;;4956596;28;20023;-71
2021/05/03 01:29:50;;;;;;;2.97;2.65;;;8.40;83.90;;;;;;4974841;28;20420;-71
2021/05/03 01:32:16;;;;;;;5.80;4.10;;;8.40;84.00;;;;;;4956531;28;20129;-71
2021/05/03 01:34:42;;;;;;;5.15;3.00;;;8.50;84.30;;;;;;4957304;28;20088;-70
2021/05/03 01:37:13;;;;;;;5.05;3.10;;;8.50;84.10;;;;;;4957039;28;20342;-71
2021/05/03 01:39:39;;;;;;;5.28;3.05;;;8.30;84.50;;;;;;4974182;28;20250;-70
2021/05/03 01:42:04;;;;;;;7.28;2.75;;;8.40;84.20;;;;;;4957009;28;20117;-70
2021/05/03 01:44:30;;;;;;;5.00;2.28;;;8.40;84.30;;;;;;4955828;28;20148;-71
2021/05/03 01:46:56;;;;;;;6.10;3.38;;;8.40;84.00;;;;;;4956941;28;20035;-71
2021/05/03 01:49:23;;;;;;;4.57;3.00;;;8.30;84.70;;;;;;4956136;28;20141;-71
2021/05/03 01:51:49;;;;;;;4.45;2.80;;;8.40;84.80;;;;;;4956643;28;20388;-70
2021/05/03 01:54:15;;;;;;;7.45;2.90;;;8.40;85.40;;;;;;4973662;28;20034;-72
2021/05/03 01:56:41;;;;;;;6.15;2.97;;;8.30;86.90;;;;;;4974514;28;20030;-70
2021/05/03 01:59:07;;;;;;;6.18;3.65;;;8.20;87.60;;;;;;4957038;28;20484;-70
2021/05/03 02:01:36;;;;;;;3.95;2.72;;;7.90;88.70;;;;;;4956256;28;20209;-71
2021/05/03 02:04:02;;;;;;;4.13;3.28;;;7.80;89.10;;;;;;4975243;28;20066;-71
2021/05/03 02:06:28;;;;;;;4.68;3.00;;;7.70;89.90;;;;;;4956677;28;20027;-71
2021/05/03 02:08:54;;;;;;;6.50;2.70;;;7.80;90.90;;;;;;4956890;28;20449;-71
2021/05/03 02:11:19;;;;;;;4.35;3.22;;;7.80;91.90;;;;;;4956656;28;20037;-71
2021/05/03 02:13:45;;;;;;;6.25;3.50;;;7.60;92.80;;;;;;4957021;28;20031;-71
2021/05/03 02:16:11;;;;;;;7.88;3.67;;;7.60;92.80;;;;;;4956930;28;20170;-71
2021/05/03 02:18:36;;;;;;;6.53;3.72;;;7.30;91.50;;;;;;4956756;28;20034;-71
2021/05/03 02:21:02;;;;;;;5.50;3.30;;;7.30;91.60;;;;;;4958861;28;20027;-75
2021/05/03 02:23:28;;;;;;;7.70;3.90;;;7.30;91.90;;;;;;4958909;28;20027;-71
2021/05/03 02:25:54;;;;;;;6.60;3.72;;;7.20;92.10;;;;;;4960455;28;20023;-72
2021/05/03 02:28:19;;;;;;;4.45;3.55;;;7.20;92.50;;;;;;4975351;28;20042;-71
2021/05/03 02:30:45;;;;;;;6.18;3.70;;;7.10;93.00;;;;;;4957081;28;20022;-71
2021/05/03 02:33:11;;;;;;;6.85;3.75;;;7.10;93.30;;;;;;4973895;28;20337;-71
2021/05/03 02:35:37;;;;;;;4.07;3.13;;;7.00;93.90;;;;;;4956377;28;20035;-70
2021/05/03 02:38:08;;;;;;;4.75;4.25;;;6.80;94.50;;;;;;4974342;28;20057;-71
2021/05/03 02:40:33;;;;;;;7.22;3.88;;;6.60;95.50;;;;;;4974914;28;20027;-71
2021/05/03 02:43:01;;;;;;;5.63;4.10;;;6.70;95.70;;;;;;4974719;28;20460;-71
2021/05/03 02:45:28;;;;;;;6.38;3.92;;;6.60;96.40;;;;;;4956227;28;20050;-71
2021/05/03 02:47:54;;;;;;;9.02;4.57;;;6.60;96.90;;;;;;4957251;28;20054;-72
2021/05/03 02:50:22;;;;;;;7.32;4.18;;;6.80;96.90;;;;;;4956249;28;20027;-71
2021/05/03 02:52:49;;;;;;;6.45;4.30;;;6.70;97.20;;;;;;4975824;28;20022;-72
2021/05/03 02:55:15;;;;;;;4.72;4.22;;;6.60;97.70;;;;;;4957657;28;20030;-71
2021/05/03 02:57:42;;;;;;;5.45;3.97;;;6.70;97.90;;;;;;4957375;28;20031;-71
2021/05/03 03:00:14;;;;;;;8.13;4.45;;;6.80;97.90;;;;;;4956302;28;20118;-71
2021/05/03 03:02:40;;;;;;;4.32;3.90;;;6.70;98.40;;;;;;4956150;28;20045;-72
2021/05/03 03:05:06;;;;;;;7.22;4.18;;;6.70;98.60;;;;;;4973418;28;20039;-71
2021/05/03 03:07:32;;;;;;;5.97;4.45;;;6.70;98.90;;;;;;4955168;28;20022;-71
2021/05/03 03:09:58;;;;;;;8.20;4.03;;;6.60;99.10;;;;;;4955545;28;20458;-71
2021/05/03 03:12:23;;;;;;;6.22;4.15;;;6.60;99.40;;;;;;4955143;28;20039;-72
2021/05/03 03:14:50;;;;;;;9.20;4.70;;;6.60;99.70;;;;;;4973211;28;20061;-72
2021/05/03 03:17:15;;;;;;;7.82;4.65;;;6.60;99.70;;;;;;4973353;28;20031;-72
2021/05/03 03:19:41;;;;;;;8.40;5.03;;;6.50;99.90;;;;;;4955588;28;20027;-72
2021/05/03 03:22:08;;;;;;;8.95;4.63;;;6.50;99.90;;;;;;4972970;28;20034;-71
2021/05/03 03:24:35;;;;;;;5.65;4.43;;;6.50;99.90;;;;;;4973530;28;20031;-72
2021/05/03 03:27:01;;;;;;;12.05;5.05;;;6.40;99.90;;;;;;4974024;28;20027;-73
2021/05/03 03:29:27;;;;;;;9.23;5.03;;;6.30;99.90;;;;;;4955389;28;20038;-72
2021/05/03 03:31:52;;;;;;;5.05;4.00;;;6.30;99.90;;;;;;4955822;28;20046;-74
2021/05/03 03:34:18;;;;;;;6.45;4.75;;;6.20;99.90;;;;;;4973617;28;20058;-73
2021/05/03 03:36:44;;;;;;;5.75;4.82;;;6.20;99.90;;;;;;4972956;28;20033;-74
2021/05/03 03:39:10;;;;;;;8.50;4.45;;;6.20;99.90;;;;;;4956136;28;20030;-72
2021/05/03 03:41:36;;;;;;;6.95;4.97;;;6.10;99.90;;;;;;4956437;28;20035;-72
2021/05/03 03:44:03;;;;;;;7.88;4.78;;;6.00;99.90;;;;;;4956170;28;20027;-73
2021/05/03 03:46:29;;;;;;;8.90;4.85;;;6.00;99.90;;;;;;4973876;28;20045;-72
2021/05/03 03:48:55;;;;;;;5.45;4.40;;;6.10;99.90;;;;;;4957727;28;20035;-71
2021/05/03 03:51:23;;;;;;;6.22;4.93;;;6.00;99.90;;;;;;4972583;28;20030;-71
2021/05/03 03:53:49;;;;;;;8.93;4.68;;;6.00;99.90;;;;;;4955673;28;20150;-72
2021/05/03 03:56:17;;;;;;;7.97;5.38;;;;;;;;;;4956041;28;20030;-74
2021/05/03 03:58:42;;;;;;;10.60;4.82;;;5.70;99.90;;;;;;4973011;28;20433;-70
2021/05/03 04:01:12;;;;;;;8.43;5.25;;;5.80;99.90;;;;;;4974779;28;20113;-71
2021/05/03 04:03:52;;;;;;;6.50;5.22;;;5.80;99.90;;;;;;4956142;28;20023;-71
2021/05/03 04:09:08;;;;;;;9.82;5.43;;;5.90;99.90;;;;;;4973045;28;20035;-70
2021/05/03 04:27:20;;;;;;;10.77;5.45;;;5.90;99.90;;;;;;4975563;28;20081;-78
2021/05/03 04:29:46;;;;;;;9.23;5.10;;;5.90;99.90;;;;;;4976423;28;20030;-72
2021/05/03 04:32:12;;;;;;;8.18;5.30;;;5.90;99.90;;;;;;4958666;28;20026;-74
2021/05/03 04:34:38;;;;;;;6.78;5.32;;;5.90;99.90;;;;;;4956366;28;20022;-72
2021/05/03 04:37:03;;;;;;;7.57;5.68;;;5.80;99.90;;;;;;4956423;28;20042;-73
2021/05/03 04:39:29;;;;;;;6.82;5.57;;;5.80;99.90;;;;;;4973115;28;20046;-71
2021/05/03 04:41:55;;;;;;;11.43;6.18;;;5.90;99.90;;;;;;4974580;28;20029;-72
2021/05/03 04:44:20;;;;;;;6.00;5.00;;;6.10;99.90;;;;;;4956917;28;20078;-72
2021/05/03 04:46:46;;;;;;;15.40;7.22;;;6.30;99.90;;;;;;4975305;28;20031;-70
2021/05/03 04:49:11;;;;;;;7.22;5.72;;;6.30;99.90;;;;;;4974799;28;20031;-71
2021/05/03 04:51:37;;;;;;;9.50;6.28;;;6.20;99.90;;;;;;4974097;28;20103;-71
2021/05/03 04:54:03;;;;;;;6.40;5.43;;;6.30;99.90;;;;;;4973673;28;20031;-70
2021/05/03 04:56:29;;;;;;;10.52;6.47;;;6.10;99.90;;;;;;4972548;28;20042;-71
2021/05/03 04:58:54;;;;;;;8.25;5.55;;;6.10;99.90;;;;;;4955883;28;20035;-71
2021/05/03 05:01:20;;;;;;;6.80;5.28;;;6.20;99.90;;;;;;4974165;28;20477;-70
2021/05/03 05:03:45;;;;;;;6.40;5.35;;;6.20;99.90;;;;;;4972852;28;20027;-72
2021/05/03 05:06:11;;;;;;;7.15;5.75;;;6.20;99.90;;;;;;4973221;28;20027;-72
2021/05/03 05:08:37;;;;;;;7.35;6.05;;;6.20;99.90;;;;;;4955010;28;20137;-72
2021/05/03 05:11:02;;;;;;;11.63;5.70;;;6.20;99.90;;;;;;4955211;28;20027;-71
2021/05/03 05:13:28;;;;;;;11.80;6.05;;;6.40;99.90;;;;;;4972582;28;20050;-72
2021/05/03 05:15:54;;;;;;;7.80;5.65;;;6.30;99.90;;;;;;4956896;28;20031;-73
2021/05/03 05:18:20;;;;;;;7.45;5.82;;;6.40;99.90;;;;;;4956670;28;20349;-71
2021/05/03 05:20:45;;;;;;;7.20;5.03;;;6.40;99.90;;;;;;4957226;28;20038;-71
2021/05/03 05:23:11;;;;;;;9.93;5.72;;;6.40;99.90;;;;;;4958297;28;20026;-71
2021/05/03 05:25:37;;;;;;;8.30;5.10;;;6.40;99.90;;;;;;4957179;28;20085;-71
2021/05/03 05:28:03;;;;;;;9.45;5.63;;;6.30;99.90;;;;;;4957379;28;20035;-68
2021/05/03 05:30:29;;;;;;;7.90;6.00;;;6.40;99.90;;;;;;4956859;28;20034;-72
2021/05/03 05:32:55;;;;;;;9.52;6.78;;;6.40;99.90;;;;;;4974779;28;20106;-70
2021/05/03 05:35:21;;;;;;;10.15;5.78;;;6.40;99.90;;;;;;4958151;28;20055;-70
2021/05/03 05:37:47;;;;;;;8.00;5.47;;;6.50;99.90;;;;;;4954596;28;20062;-71
2021/05/03 05:40:12;;;;;;;10.35;6.50;;;6.60;99.90;;;;;;4966275;28;20035;-73
2021/05/03 05:42:38;;;;;;;8.63;5.60;;;6.60;99.90;;;;;;4971055;28;20031;-70
2021/05/03 05:45:04;;;;;;;9.20;5.95;;;6.90;99.90;;;;;;4953018;28;20255;-69
2021/05/03 05:47:30;;;;;;;11.35;5.63;;;6.90;99.90;;;;;;4955787;28;20031;-69
2021/05/03 05:49:56;;;;;;;9.98;6.28;;;7.00;99.90;;;;;;4980575;28;20081;-69
2021/05/03 05:52:22;;;;;;;8.45;4.85;;;7.20;99.90;;;;;;4974420;28;20030;-64
2021/05/03 05:54:47;;;;;;;8.38;6.10;;;8.50;99.90;;;;;;4972605;28;20026;-64
2021/05/03 05:57:13;;;;;;;17.48;8.43;;;8.70;99.90;;;;;;4973054;28;20103;-63
2021/05/03 05:59:39;;;;;;;8.98;5.13;;;8.90;98.20;;;;;;4971276;28;20114;-64
2021/05/03 06:02:04;;;;;;;11.20;5.35;;;9.00;97.50;;;;;;4973300;28;20034;-63
2021/05/03 06:04:32;;;;;;;11.65;6.35;;;9.00;97.10;;;;;;4970711;28;20436;-64
2021/05/03 06:06:57;;;;;;;8.00;5.25;;;9.10;96.80;;;;;;4971488;28;20204;-66
2021/05/03 06:09:23;;;;;;;6.20;5.00;;;9.10;96.00;;;;;;4973148;28;20114;-63
2021/05/03 06:11:49;;;;;;;7.93;5.57;;;9.10;96.40;;;;;;4972900;28;20078;-65
2021/05/03 06:14:14;;;;;;;8.07;5.60;;;9.30;96.30;;;;;;4972000;28;20085;-64
2021/05/03 06:16:40;;;;;;;9.13;5.70;;;9.50;95.40;;;;;;4971958;28;20031;-64
2021/05/03 06:19:06;;;;;;;9.93;5.60;;;9.40;95.70;;;;;;4954705;28;20046;-66
2021/05/03 06:21:31;;;;;;;7.80;5.53;;;9.50;95.40;;;;;;4953790;28;20078;-64
2021/05/03 06:23:57;;;;;;;13.30;5.32;;;9.60;95.00;;;;;;4972630;28;20031;-65
2021/05/03 06:26:23;;;;;;;7.30;6.13;;;9.70;94.80;;;;;;4971894;28;20029;-63
2021/05/03 06:28:48;;;;;;;7.50;4.82;;;9.80;94.00;;;;;;4954055;28;20049;-65
2021/05/03 06:31:14;;;;;;;9.48;5.97;;;10.20;93.90;;;;;;4972171;28;20149;-65
2021/05/03 06:33:40;;;;;;;10.70;5.35;;;10.40;92.90;;;;;;4953554;28;20468;-65
2021/05/03 06:36:06;;;;;;;8.77;4.93;;;10.50;92.80;;;;;;4972108;28;20054;-65
2021/05/03 06:38:31;;;;;;;6.70;4.97;;;10.60;92.00;;;;;;4970632;28;20030;-64
2021/05/03 06:40:57;;;;;;;6.30;5.57;;;10.40;92.50;;;;;;4971856;28;20040;-66
2021/05/03 06:43:23;;;;;;;12.20;5.43;;;10.60;92.00;;;;;;4954054;28;20034;-64
2021/05/03 06:45:49;;;;;;;12.48;5.22;;;10.60;91.90;;;;;;4970743;28;20389;-64
2021/05/03 06:48:15;;;;;;;8.65;5.40;;;10.70;91.40;;;;;;4954241;28;20035;-65
2021/05/03 06:50:43;;;;;;;8.77;5.88;;;11.00;91.10;;;;;;4953631;28;20041;-65
2021/05/03 06:53:10;;;;;;;9.70;5.45;;;11.10;90.70;;;;;;4971422;28;20043;-64
2021/05/03 06:55:36;;;;;;;8.30;5.85;;;11.00;90.30;;;;;;4953567;28;20125;-64
2021/05/03 06:58:02;;;;;;;9.70;5.15;;;11.40;89.60;;;;;;4970500;28;20125;-66
2021/05/03 07:00:28;;;;;;;8.77;5.50;;;11.00;89.30;;;;;;4953594;28;20069;-66
2021/05/03 07:02:54;;;;;;;11.02;5.20;;;11.30;88.80;;;;;;4954093;28;20050;-66
2021/05/03 07:05:19;;;;;;;12.90;5.22;;;11.30;88.60;;;;;;4953548;28;20393;-65
2021/05/03 07:07:45;;;;;;;11.55;5.70;;;11.10;88.40;;;;;;4955118;28;20246;-65
2021/05/03 07:10:13;;;;;;;7.88;5.95;;;11.30;88.60;;;;;;4954189;28;20465;-64
2021/05/03 07:12:43;;;;;;;12.40;5.75;;;11.50;86.90;;;;;;4971326;28;20030;-65
2021/05/03 07:15:10;;;;;;;9.55;5.05;;;11.70;85.40;;;;;;4972976;28;20035;-65
2021/05/03 07:17:35;;;;;;;8.90;3.95;;;11.80;84.00;;;;;;4954706;28;20520;-61
2021/05/03 07:20:01;;;;;;;10.38;6.07;;;12.10;84.20;;;;;;4954829;28;20118;-71
2021/05/03 07:22:27;;;;;;;8.60;5.78;;;11.50;84.90;;;;;;4953740;28;20023;-75
2021/05/03 07:24:52;;;;;;;8.63;5.53;;;11.20;86.50;;;;;;4971543;28;20099;-70
2021/05/03 07:27:18;;;;;;;7.78;5.30;;;10.90;86.70;;;;;;4971148;28;20027;-71
2021/05/03 07:29:44;;;;;;;9.13;4.80;;;10.90;87.00;;;;;;4954347;28;20551;-71
2021/05/03 07:32:10;;;;;;;9.23;4.60;;;10.80;85.90;;;;;;4971985;28;20121;-73
2021/05/03 07:34:35;;;;;;;9.18;6.10;;;10.80;86.00;;;;;;4971468;28;20038;-71
2021/05/03 07:37:03;;;;;;;7.32;5.85;;;10.90;85.50;;;;;;4955250;28;20460;-73
2021/05/03 07:39:29;;;;;;;8.38;5.53;;;11.10;86.20;;;;;;4971205;28;20030;-71
2021/05/03 07:41:54;;;;;;;9.63;5.05;;;11.30;84.70;;;;;;4970892;28;20046;-71
2021/05/03 07:44:21;;;;;;;7.05;4.75;;;11.20;83.40;;;;;;4968766;28;20054;-70
2021/05/03 07:46:48;;;;;;;5.43;4.13;;;11.40;83.70;;;;;;4969228;28;20126;-71
2021/05/03 07:49:14;;;;;;;6.95;4.57;;;11.60;82.30;;;;;;4969587;28;20214;-71
2021/05/03 07:51:39;;;;;;;5.05;4.18;;;11.50;81.30;;;;;;4970332;28;20125;-71
2021/05/03 07:54:05;;;;;;;9.95;4.15;;;11.60;80.40;;;;;;4971879;28;20035;-70
2021/05/03 07:56:32;;;;;;;6.38;4.05;;;11.60;81.00;;;;;;4968271;28;20041;-71
2021/05/03 07:58:58;;;;;;;10.48;4.05;;;11.70;81.10;;;;;;4970757;28;20110;-74
2021/05/03 08:01:24;;;;;;;8.80;4.53;;;12.20;77.80;;;;;;4968626;28;20104;-72
2021/05/03 08:03:50;;;;;;;9.45;3.90;;;12.30;77.00;;;;;;4968757;28;20038;-70
2021/05/03 08:06:16;;;;;;;8.25;5.07;;;12.60;77.70;;;;;;4969075;28;20026;-69
2021/05/03 08:08:44;;;;;;;5.95;4.18;;;12.20;77.20;;;;;;4972107;28;20038;-72
2021/05/03 08:11:10;;;;;;;4.75;3.85;;;12.70;77.20;;;;;;4949247;28;20430;-73
2021/05/03 08:13:36;;;;;;;6.22;4.03;;;13.20;75.70;;;;;;4953223;28;20421;-76
2021/05/03 08:16:04;;;;;;;5.93;3.95;;;12.90;74.20;;;;;;4967221;28;20165;-69
2021/05/03 08:18:30;;;;;;;8.00;3.88;;;13.00;74.20;;;;;;4949452;28;20046;-85
2021/05/03 08:20:57;;;;;;;8.63;4.45;;;12.80;73.70;;;;;;4969415;28;20045;-65
2021/05/03 08:23:23;;;;;;;6.70;4.05;;;13.50;83.10;;;;;;4952205;28;20022;-72
2021/05/03 08:25:50;;;;;;;6.40;3.75;;;14.10;73.30;;;;;;4952594;28;20023;-71
2021/05/03 08:28:17;;;;;;;5.05;3.60;;;14.00;70.80;;;;;;4970053;28;20070;-73
2021/05/03 08:30:44;;;;;;;4.85;3.83;;;13.90;70.60;;;;;;4951993;28;20035;-70
2021/05/03 08:33:09;;;;;;;9.07;4.53;;;14.00;69.40;;;;;;4970520;28;20325;-70
2021/05/03 08:35:36;;;;;;;3.55;3.13;;;14.00;67.90;;;;;;4952184;28;20023;-68
2021/05/03 08:38:02;;;;;;;5.32;3.55;;;14.10;68.10;;;;;;4970412;28;20102;-68
2021/05/03 08:40:29;;;;;;;7.53;2.80;;;13.80;66.60;;;;;;4952421;28;20426;-73
2021/05/03 08:42:56;;;;;;;4.35;2.85;;;13.60;67.40;;;;;;4970398;28;20053;-70
2021/05/03 08:45:22;;;;;;;6.43;2.90;;;13.60;67.00;;;;;;4952737;28;20055;-67
2021/05/03 08:48:26;;;;;;;4.65;3.08;;;13.90;66.00;;;;;;4971421;28;20045;-70
2021/05/03 08:53:21;;;;;;;5.32;3.10;;;14.30;66.10;;;;;;4970023;28;20137;-68
2021/05/03 08:55:46;;;;;;;5.10;3.17;;;14.60;62.60;;;;;;4953923;28;20025;-70
2021/05/03 08:58:13;;;;;;;8.57;3.42;;;14.70;62.70;;;;;;4954107;28;20442;-73
2021/05/03 09:00:39;;;;;;;8.63;3.22;;;14.80;63.40;;;;;;4953193;28;20029;-67
2021/05/03 09:03:10;;;;;;;3.30;2.90;;;15.10;63.10;;;;;;4971175;28;20022;-71
2021/05/03 09:05:36;;;;;;;3.03;2.50;;;15.70;61.20;;;;;;4953121;28;20031;-70
2021/05/03 09:08:03;;;;;;;4.38;2.30;;;15.60;57.30;;;;;;4953642;28;20471;-69
2021/05/03 09:10:30;;;;;;;6.80;3.58;;;15.90;56.40;;;;;;4952680;28;20027;-73
2021/05/03 09:13:10;;;;;;;3.08;2.20;;;16.30;55.00;;;;;;4970747;28;20410;-70
2021/05/03 09:15:36;;;;;;;3.67;2.65;;;15.80;54.90;;;;;;4953139;28;20141;-71
2021/05/03 09:18:02;;;;;;;4.93;2.65;;;15.60;56.10;;;;;;4953590;28;20042;-70
2021/05/03 09:20:29;;;;;;;5.63;2.53;;;16.00;55.20;;;;;;4970969;28;20449;-69
2021/05/03 09:22:58;;;;;;;4.78;3.33;;;16.10;54.30;;;;;;4957173;28;20038;-69
2021/05/03 09:28:13;;;;;;;4.43;2.50;;;15.70;54.40;;;;;;4974396;28;20130;-70
2021/05/03 09:30:47;;;;;;;7.05;2.30;;;15.90;55.40;;;;;;4973930;28;20022;-70
2021/05/03 09:33:28;;;;;;;6.63;2.72;;;16.30;53.30;;;;;;4974810;28;20459;-71
2021/05/03 09:35:54;;;;;;;4.25;2.58;;;16.60;52.40;;;;;;4956750;28;20372;-70
2021/05/03 09:38:26;;;;;;;5.35;2.80;;;16.60;50.70;;;;;;4957199;28;20035;-72
2021/05/03 09:41:10;;;;;;;;;;;16.10;52.00;;;;;;4974953;28;20116;-70
2021/05/03 09:43:37;;;;;;;4.05;2.63;;;15.90;52.20;;;;;;4956836;28;19906;-70
2021/05/03 09:46:25;;;;;;;5.28;2.88;;;16.00;51.90;;;;;;4974158;28;20045;-70
2021/05/03 09:48:53;;;;;;;3.15;2.30;;;16.00;51.30;;;;;;4955888;28;20133;-71
2021/05/03 09:51:33;;;;;;;5.55;2.22;;;15.70;50.70;;;;;;4974109;28;20050;-71
2021/05/03 09:54:17;;;;;;;5.85;2.95;;;15.70;50.70;;;;;;4974675;28;20114;-72
2021/05/03 09:56:55;;;;;;;2.65;2.30;;;16.10;51.70;;;;;;4956605;28;20026;-71
2021/05/03 09:59:35;;;;;;;5.47;3.30;;;16.00;51.10;;;;;;4974010;28;20031;-72
2021/05/03 10:02:04;;;;;;;8.15;2.80;;;16.20;51.70;;;;;;4974249;28;20058;-71
2021/05/03 10:04:31;;;;;;;6.03;2.95;;;16.80;49.80;;;;;;4956442;28;20121;-71
2021/05/03 10:06:57;;;;;;;4.68;2.85;;;16.80;49.50;;;;;;4974478;28;20022;-72
2021/05/03 10:09:24;;;;;;;3.15;2.40;;;16.90;49.20;;;;;;4974020;28;20145;-72
2021/05/03 10:11:50;;;;;;;5.63;1.98;;;16.90;48.70;;;;;;4955421;28;20030;-71
2021/05/03 10:14:16;;;;;;;6.85;2.33;;;17.30;53.70;;;;;;4956206;28;20443;-70
2021/05/03 10:16:42;;;;;;;8.30;2.65;;;17.40;45.30;;;;;;4973020;28;20031;-69
2021/05/03 10:19:08;;;;;;;6.95;2.58;;;17.80;45.00;;;;;;4973211;28;20027;-70
2021/05/03 10:21:34;;;;;;;4.70;3.25;;;17.80;45.90;;;;;;4955593;28;20122;-71
2021/05/03 10:24:01;;;;;;;3.20;2.90;;;17.40;45.40;;;;;;4973599;28;20027;-71
2021/05/03 10:26:27;;;;;;;3.20;2.53;;;17.50;45.40;;;;;;4973482;28;20027;-70
2021/05/03 10:28:59;;;;;;;3.17;2.28;;;17.40;44.60;;;;;;4972932;28;20201;-70
2021/05/03 10:31:25;;;;;;;5.10;3.05;;;17.30;45.90;;;;;;4973327;28;20030;-70
2021/05/03 10:33:51;;;;;;;2.67;2.28;;;17.90;45.00;;;;;;4953450;28;20076;-72
2021/05/03 10:36:35;;;;;;;3.60;2.15;;;18.20;43.50;;;;;;4955619;28;20098;-71
2021/05/03 10:39:21;;;;;;;3.42;2.25;;;18.10;43.60;;;;;;4955232;28;20023;-71
2021/05/03 10:42:03;;;;;;;4.35;2.95;;;18.70;43.90;;;;;;4954472;28;20026;-71
2021/05/03 10:44:30;;;;;;;5.03;2.40;;;18.10;44.70;;;;;;4954900;28;20061;-71
2021/05/03 10:47:10;;;;;;;3.15;1.88;;;18.30;43.40;;;;;;4972137;28;20073;-71
2021/05/03 10:49:44;;;;;;;4.63;2.45;;;18.40;43.00;;;;;;4954310;28;20122;-70
2021/05/03 10:52:16;;;;;;;4.35;2.00;;;18.60;40.90;;;;;;4970960;28;20054;-71
2021/05/03 10:54:47;;;;;;;;;;;18.10;40.40;;;;;;4954226;28;20035;-70
2021/05/03 10:57:16;;;;;;;4.80;2.30;;;18.10;40.80;;;;;;4954564;28;20305;-71
2021/05/03 10:59:51;;;;;;;4.00;2.35;;;19.00;42.40;;;;;;4953803;28;20125;-70
2021/05/03 11:02:22;;;;;;;5.50;3.00;;;18.70;41.50;;;;;;4954280;28;20117;-70
2021/05/03 11:05:10;;;;;;;5.57;2.07;;;18.50;43.10;;;;;;4971549;28;20449;-69
2021/05/03 11:08:05;;;;;;;4.53;2.55;;;18.40;42.70;;;;;;4954162;28;20262;-75
2021/05/03 11:10:53;;;;;;;4.20;2.97;;;17.70;43.00;;;;;;4953767;28;20089;-72
2021/05/03 11:13:38;;;;;;;5.65;2.40;;;17.40;43.40;;;;;;4954665;28;20018;-72
2021/05/03 11:16:27;;;;;;;5.28;3.17;;;18.20;43.10;;;;;;4954118;28;20054;-70
2021/05/03 11:18:58;;;;;;;3.35;2.65;;;18.70;42.10;;;;;;4953294;28;20125;-69
2021/05/03 11:21:40;;;;;;;7.03;2.10;;;18.30;42.20;;;;;;4953719;28;20030;-70
2021/05/03 11:24:23;;;;;;;7.60;2.28;;;18.40;41.50;;;;;;4953842;28;20047;-69
2021/05/03 11:27:14;;;;;;;8.23;3.42;;;18.90;41.30;;;;;;4953041;28;20061;-69
2021/05/03 11:29:47;;;;;;;7.53;2.53;;;18.50;41.10;;;;;;4954189;28;20058;-71
2021/05/03 11:32:14;;;;;;;2.53;2.28;;;17.40;42.60;;;;;;4953668;28;20035;-69
2021/05/03 11:34:54;;;;;;;4.20;2.78;;;17.70;42.60;;;;;;4953089;28;20035;-68
2021/05/03 11:37:29;;;;;;;2.78;2.35;;;18.00;41.50;;;;;;4953886;28;20154;-68
2021/05/03 11:45:07;;;;;;;5.00;2.60;;;18.40;41.50;;;;;;4970662;28;20090;-71
2021/05/03 11:47:41;;;;;;;4.32;2.30;;;18.00;41.20;;;;;;4971341;28;20141;-71
2021/05/03 11:50:08;;;;;;;4.25;2.25;;;18.10;42.70;;;;;;4953455;28;20039;-69
2021/05/03 11:52:38;;;;;;;8.13;2.63;;;17.50;42.10;;;;;;4953759;28;20027;-69
2021/05/03 11:55:12;;;;;;;6.22;2.58;;;17.30;43.40;;;;;;4953208;28;20037;-72
2021/05/03 11:57:40;;;;;;;5.15;2.35;;;17.40;43.00;;;;;;4952941;28;20491;-70
2021/05/03 12:00:08;;;;;;;3.78;1.33;;;17.80;41.90;;;;;;4953459;28;20457;-69
2021/05/03 12:02:35;;;;;;;6.72;2.78;;;18.60;41.70;;;;;;4952979;28;20545;-69
2021/05/03 12:05:00;;;;;;;5.43;2.05;;;18.30;40.70;;;;;;4952806;28;20435;-70
2021/05/03 12:07:29;;;;;;;5.10;2.47;;;17.50;41.70;;;;;;4970780;28;20114;-69
2021/05/03 12:10:08;;;;;;;2.63;2.05;;;17.20;43.20;;;;;;4952146;28;20034;-69
2021/05/03 12:12:36;;;;;;;5.28;2.78;;;17.40;43.40;;;;;;4942603;29;20181;-69
2021/05/03 12:15:08;;;;;;;6.28;3.00;;;17.50;43.70;;;;;;4934593;29;20458;-70
2021/05/03 12:17:35;;;;;;;4.63;2.75;;;16.80;44.90;;;;;;4956178;28;20038;-70
2021/05/03 12:20:07;;;;;;;3.38;2.60;;;16.30;45.50;;;;;;4971322;28;20130;-71
2021/05/03 12:22:33;;;;;;;5.13;2.83;;;16.30;48.40;;;;;;4953473;28;20441;-71
2021/05/03 12:25:05;;;;;;;4.90;1.83;;;16.50;45.70;;;;;;4971210;28;20071;-69
2021/05/03 12:27:32;;;;;;;4.70;2.35;;;17.30;46.00;;;;;;4953612;28;20098;-70
2021/05/03 12:29:58;;;;;;;5.25;2.40;;;17.30;44.70;;;;;;4952702;28;20148;-68
2021/05/03 12:32:30;;;;;;;4.30;2.28;;;17.10;45.50;;;;;;4953111;28;20062;-70
2021/05/03 12:34:56;;;;;;;5.72;2.30;;;16.70;46.10;;;;;;4953333;28;20395;-71
2021/05/03 12:37:24;;;;;;;7.78;2.83;;;16.20;47.30;;;;;;4971214;28;20094;-70
2021/05/03 12:40:09;;;;;;;4.07;2.95;;;16.10;47.50;;;;;;4952590;28;20031;-69
2021/05/03 12:42:49;;;;;;;4.82;2.88;;;16.30;47.30;;;;;;4953233;28;20033;-68
2021/05/03 12:45:31;;;;;;;2.63;2.10;;;16.20;47.40;;;;;;4952927;28;20169;-69
2021/05/03 12:53:42;;;;;;;5.75;2.60;;;15.70;47.50;;;;;;4970749;28;20046;-69
2021/05/03 12:56:35;;;;;;;5.13;2.80;;;16.00;47.40;;;;;;4952573;28;20027;-69
2021/05/03 12:59:18;;;;;;;3.22;2.38;;;16.30;47.60;;;;;;4952470;28;20117;-70
2021/05/03 13:01:54;;;;;;;3.47;2.33;;;17.00;46.80;;;;;;4952301;28;20031;-69
2021/05/03 13:04:44;;;;;;;5.25;2.28;;;17.30;45.00;;;;;;4952609;28;20039;-68
2021/05/03 13:07:41;;;;;;;6.00;1.90;;;17.20;44.90;;;;;;4970492;28;20198;-69
2021/05/03 13:29:44;;;;;;;5.43;2.17;;;16.30;47.80;;;;;;4968670;28;20113;-70
2021/05/03 13:32:20;;;;;;;2.35;1.85;;;16.30;47.50;;;;;;4969228;28;20027;-70
2021/05/03 13:34:48;;;;;;;5.13;2.20;;;16.10;47.30;;;;;;4950717;28;20216;-71
2021/05/03 13:37:15;;;;;;;3.25;2.22;;;16.60;47.70;;;;;;4951368;28;20031;-69
2021/05/03 13:39:40;;;;;;;6.75;2.08;;;16.80;46.80;;;;;;4968466;28;20038;-71
2021/05/03 13:42:10;;;;;;;5.22;2.17;;;16.60;46.80;;;;;;4951079;28;20444;-69
2021/05/03 13:44:37;;;;;;;3.35;2.15;;;17.00;46.00;;;;;;4968507;28;20227;-69
2021/05/03 13:47:03;;;;;;;4.50;1.80;;;17.30;44.60;;;;;;4950772;28;20041;-71
2021/05/03 13:49:33;;;;;;;6.32;1.73;;;17.50;43.70;;;;;;4951535;28;20030;-71
2021/05/03 13:52:08;;;;;;;4.47;1.95;;;17.30;44.20;;;;;;4950583;28;20412;-71
2021/05/03 13:54:35;;;;;;;4.30;1.67;;;16.70;44.60;;;;;;4951549;28;20480;-73